Time;durP1;ratioP1;P1;durP2;ratioP2;P2;SDS_P1;SDS_P2;PMS_P1;PMS_P2;Temp;Humidity;BMP_temperature;BMP_pressure;BME280_temperature;BME280_humidity;BME280_pressure;Samples;Min_cycle;Max_cycle;Signal;HPM_P1;HPM_P2
2023/09/30 00:06:48;;;;;;;9.30;5.93;;;11.70;99.90;;;;;;25591823;23;20008;-59
2023/09/30 00:16:50;;;;;;;7.57;4.85;;;11.80;99.90;;;;;;25590369;23;20001;-53
2023/09/30 00:26:52;;;;;;;7.65;4.30;;;11.50;99.90;;;;;;25591344;23;20009;-53
2023/09/30 00:36:53;;;;;;;9.23;5.10;;;11.40;99.90;;;;;;25589976;23;20013;-52
2023/09/30 00:46:56;;;;;;;5.60;4.43;;;11.90;99.90;;;;;;25590479;23;20005;-59
2023/09/30 00:57:00;;;;;;;7.85;4.05;;;11.60;99.90;;;;;;25589900;23;20013;-50
2023/09/30 01:07:02;;;;;;;6.88;3.85;;;11.60;99.90;;;;;;25587457;23;20001;-50
2023/09/30 01:17:04;;;;;;;5.18;3.63;;;11.60;99.90;;;;;;25589513;23;20376;-53
2023/09/30 01:27:06;;;;;;;6.13;4.30;;;11.60;99.90;;;;;;25562756;23;20031;-59
2023/09/30 01:37:08;;;;;;;8.18;4.75;;;11.40;99.90;;;;;;25588457;23;20005;-59
2023/09/30 01:47:11;;;;;;;5.10;3.63;;;11.30;99.90;;;;;;25590206;23;20429;-50
2023/09/30 01:57:13;;;;;;;7.90;4.57;;;11.60;99.90;;;;;;25588699;23;20440;-59
2023/09/30 02:07:15;;;;;;;7.03;4.55;;;11.50;99.90;;;;;;25587044;23;20028;-59
2023/09/30 02:17:17;;;;;;;5.70;4.20;;;11.30;99.90;;;;;;25591962;23;20009;-50
2023/09/30 02:27:18;;;;;;;10.07;5.10;;;11.40;99.90;;;;;;25594214;23;20432;-52
2023/09/30 02:37:20;;;;;;;8.30;5.63;;;11.50;99.90;;;;;;25595232;23;20012;-60
2023/09/30 02:47:22;;;;;;;15.93;8.32;;;11.20;99.90;;;;;;25594945;23;20001;-49
2023/09/30 02:57:24;;;;;;;13.35;6.25;;;11.10;99.90;;;;;;25594655;23;20507;-58
2023/09/30 03:07:26;;;;;;;7.85;4.35;;;10.90;99.90;;;;;;25592473;23;20495;-52
2023/09/30 03:17:28;;;;;;;7.57;4.43;;;10.80;99.90;;;;;;25593714;23;20009;-51
2023/09/30 03:27:30;;;;;;;7.20;3.47;;;11.00;99.90;;;;;;25592973;23;20259;-49
2023/09/30 03:37:32;;;;;;;4.95;3.10;;;10.80;99.90;;;;;;25591890;23;20008;-59
2023/09/30 03:47:35;;;;;;;5.15;2.13;;;10.80;99.90;;;;;;25591827;23;20001;-54
2023/09/30 03:57:37;;;;;;;3.10;2.05;;;10.60;99.90;;;;;;25591423;23;20013;-59
2023/09/30 04:07:39;;;;;;;3.85;2.42;;;10.60;99.90;;;;;;25591031;23;20001;-59
2023/09/30 04:17:41;;;;;;;5.20;2.08;;;10.90;99.90;;;;;;25590677;23;20056;-59
2023/09/30 04:27:46;;;;;;;3.28;1.50;;;10.80;99.90;;;;;;25590756;23;20009;-59
2023/09/30 04:37:48;;;;;;;3.35;1.70;;;10.50;99.90;;;;;;25588924;23;20017;-53
2023/09/30 04:47:50;;;;;;;4.75;1.88;;;10.70;99.90;;;;;;25589732;23;20009;-59
2023/09/30 04:57:52;;;;;;;3.13;1.77;;;11.30;99.90;;;;;;25589121;23;20521;-51
2023/09/30 05:07:53;;;;;;;7.10;2.35;;;11.20;99.90;;;;;;25588776;23;20001;-58
2023/09/30 05:17:55;;;;;;;5.80;2.30;;;10.90;99.90;;;;;;25588725;23;20004;-49
2023/09/30 05:27:57;;;;;;;17.15;5.60;;;10.50;99.90;;;;;;25588492;23;20005;-51
2023/09/30 05:37:59;;;;;;;2.90;1.73;;;10.50;99.90;;;;;;25588136;23;20429;-49
2023/09/30 05:48:05;;;;;;;3.50;2.20;;;10.80;99.90;;;;;;25589472;23;20009;-59
2023/09/30 05:58:07;;;;;;;2.63;1.55;;;10.70;99.90;;;;;;25636628;23;20016;-58
2023/09/30 06:08:16;;;;;;;4.85;1.88;;;10.80;99.90;;;;;;25596035;23;20448;-59
2023/09/30 06:18:18;;;;;;;5.60;2.25;;;10.90;99.90;;;;;;25609964;23;20009;-53
2023/09/30 06:28:25;;;;;;;4.65;2.42;;;11.00;99.90;;;;;;25594630;23;20001;-58
2023/09/30 06:38:28;;;;;;;5.45;3.00;;;11.20;99.90;;;;;;25635761;23;20005;-53
2023/09/30 06:48:29;;;;;;;6.88;3.10;;;11.30;99.90;;;;;;25594158;23;20001;-60
2023/09/30 06:58:31;;;;;;;5.35;2.50;;;11.50;99.90;;;;;;25593166;23;20302;-53
2023/09/30 07:08:33;;;;;;;8.60;3.58;;;12.40;99.90;;;;;;25593567;23;20001;-59
2023/09/30 07:18:36;;;;;;;7.97;4.10;;;13.30;99.90;;;;;;25594151;23;20021;-52
2023/09/30 07:28:38;;;;;;;5.63;3.63;;;14.10;99.90;;;;;;25592190;23;20009;-60
2023/09/30 07:38:40;;;;;;;6.80;4.20;;;15.20;99.90;;;;;;25633629;23;20005;-51
2023/09/30 07:48:42;;;;;;;5.20;3.20;;;16.20;99.90;;;;;;25591809;23;20009;-60
2023/09/30 07:58:44;;;;;;;4.93;2.92;;;17.40;99.90;;;;;;25591558;23;20001;-60
2023/09/30 08:08:47;;;;;;;5.68;4.10;;;18.50;99.90;;;;;;25590659;23;20005;-60
2023/09/30 08:18:48;;;;;;;6.45;4.10;;;19.20;99.90;;;;;;25589515;23;20005;-54
2023/09/30 08:28:50;;;;;;;7.47;4.10;;;20.30;99.90;;;;;;25590751;23;20009;-61
2023/09/30 08:38:52;;;;;;;4.28;3.88;;;21.00;99.90;;;;;;25590057;23;20060;-61
2023/09/30 08:48:57;;;;;;;4.80;4.00;;;21.60;99.90;;;;;;25589707;23;20008;-61
2023/09/30 08:59:01;;;;;;;6.32;3.95;;;22.30;99.90;;;;;;25589374;23;20008;-61
2023/09/30 09:09:19;;;;;;;4.72;4.22;;;22.70;99.90;;;;;;25588291;23;20372;-62
2023/09/30 09:19:21;;;;;;;5.27;4.20;;;23.00;99.90;;;;;;25588926;23;20009;-62
2023/09/30 09:29:26;;;;;;;4.70;3.25;;;23.60;99.90;;;;;;25588219;23;20260;-50
2023/09/30 09:39:31;;;;;;;6.90;4.00;;;23.70;99.10;;;;;;25588045;23;20001;-63
2023/09/30 09:49:33;;;;;;;6.10;3.90;;;23.10;96.90;;;;;;25588224;23;20005;-62
2023/09/30 09:59:36;;;;;;;4.60;3.15;;;22.20;98.90;;;;;;25588039;23;20017;-62
2023/09/30 10:09:41;;;;;;;4.10;3.03;;;22.00;98.70;;;;;;25587518;23;20009;-61
2023/09/30 10:20:09;;;;;;;6.35;3.88;;;22.00;95.90;;;;;;25587568;23;20005;-62
2023/09/30 10:30:15;;;;;;;4.93;4.00;;;22.90;98.90;;;;;;25618467;23;20017;-61
2023/09/30 10:40:37;;;;;;;6.55;4.18;;;24.10;99.40;;;;;;25632447;23;20009;-60
2023/09/30 10:51:00;;;;;;;5.15;4.05;;;24.60;96.90;;;;;;25634371;23;20495;-62
2023/09/30 11:01:04;;;;;;;5.63;4.88;;;24.40;98.00;;;;;;25634755;23;20310;-60
2023/09/30 11:11:06;;;;;;;9.68;5.20;;;24.70;97.80;;;;;;25594584;23;20032;-61
2023/09/30 11:21:12;;;;;;;9.90;5.80;;;24.60;98.20;;;;;;25593056;23;20008;-60
2023/09/30 11:31:15;;;;;;;5.50;5.00;;;24.30;99.80;;;;;;25621275;23;20064;-54
2023/09/30 11:41:18;;;;;;;6.45;4.10;;;24.30;97.80;;;;;;25592540;23;20012;-62
2023/09/30 11:51:20;;;;;;;6.82;4.70;;;24.30;97.90;;;;;;25591536;23;20009;-62
2023/09/30 12:01:22;;;;;;;6.88;4.75;;;24.50;97.20;;;;;;25591328;23;20001;-62
2023/09/30 12:11:24;;;;;;;5.15;4.47;;;24.40;97.70;;;;;;25590583;23;20056;-53
2023/09/30 12:21:25;;;;;;;5.60;4.63;;;24.10;96.30;;;;;;25590615;23;20013;-62
2023/09/30 12:31:27;;;;;;;7.70;5.25;;;24.10;97.60;;;;;;25590636;23;20020;-63
2023/09/30 12:41:32;;;;;;;9.68;6.10;;;24.20;99.80;;;;;;25589477;23;20016;-63
2023/09/30 12:51:36;;;;;;;7.00;5.30;;;24.30;98.70;;;;;;25587517;23;20078;-63
2023/09/30 13:01:39;;;;;;;7.30;5.68;;;24.20;98.30;;;;;;25589454;23;20001;-63
2023/09/30 13:11:41;;;;;;;7.88;5.30;;;24.10;97.80;;;;;;25588839;23;20402;-63
2023/09/30 13:21:43;;;;;;;6.45;3.90;;;23.90;97.90;;;;;;25588936;23;20302;-62
2023/09/30 13:31:45;;;;;;;4.28;3.25;;;23.60;95.50;;;;;;25588038;23;20060;-63
2023/09/30 13:41:47;;;;;;;4.15;3.70;;;22.90;91.90;;;;;;25588089;23;20504;-62
2023/09/30 13:51:49;;;;;;;6.90;3.28;;;22.00;93.00;;;;;;25561343;23;20005;-58
2023/09/30 14:01:51;;;;;;;10.80;5.68;;;21.50;94.30;;;;;;25587132;23;20044;-64
2023/09/30 14:11:52;;;;;;;7.90;5.05;;;21.20;97.80;;;;;;25591246;23;20063;-64
2023/09/30 14:21:54;;;;;;;5.45;4.03;;;20.80;97.00;;;;;;25595630;23;20332;-64
2023/09/30 14:31:57;;;;;;;7.22;5.15;;;20.20;97.60;;;;;;25595086;23;20399;-64
2023/09/30 14:41:59;;;;;;;7.57;6.30;;;19.50;99.20;;;;;;25594268;23;20380;-63
2023/09/30 14:52:02;;;;;;;10.50;6.55;;;19.00;99.90;;;;;;25593910;23;20060;-63
2023/09/30 15:02:04;;;;;;;7.10;4.93;;;18.70;99.90;;;;;;25594000;23;20013;-63
2023/09/30 15:12:06;;;;;;;5.32;4.55;;;18.50;99.90;;;;;;25567079;23;20028;-57
2023/09/30 15:22:08;;;;;;;7.93;4.20;;;18.20;99.10;;;;;;25592748;23;20005;-63
2023/09/30 15:32:11;;;;;;;7.55;5.03;;;18.20;98.20;;;;;;25590913;23;20009;-62
2023/09/30 15:42:13;;;;;;;9.40;4.45;;;18.10;99.60;;;;;;25592249;23;20001;-62
2023/09/30 15:52:15;;;;;;;7.72;4.63;;;17.30;99.90;;;;;;25591770;23;20060;-61
2023/09/30 16:02:16;;;;;;;9.48;5.22;;;16.50;99.90;;;;;;25591825;23;20009;-61
2023/09/30 16:12:18;;;;;;;8.63;5.40;;;15.80;99.90;;;;;;25590840;23;20429;-61
2023/09/30 16:22:20;;;;;;;6.93;4.20;;;15.10;99.90;;;;;;25590694;23;20012;-61
2023/09/30 16:32:21;;;;;;;7.47;5.00;;;14.50;99.90;;;;;;25591395;23;20013;-60
2023/09/30 16:42:23;;;;;;;10.38;5.70;;;14.10;99.90;;;;;;25590494;23;20060;-61
2023/09/30 16:52:25;;;;;;;8.75;4.47;;;13.60;99.90;;;;;;25590550;23;20332;-61
2023/09/30 17:02:27;;;;;;;17.52;12.98;;;13.30;99.90;;;;;;25590441;23;20005;-60
2023/09/30 17:12:28;;;;;;;6.43;4.10;;;13.00;99.90;;;;;;25589529;23;20440;-60
2023/09/30 17:22:30;;;;;;;6.13;3.65;;;12.70;99.90;;;;;;25589809;23;20445;-60
2023/09/30 17:32:32;;;;;;;12.15;5.20;;;12.50;99.90;;;;;;25587410;23;20028;-60
2023/09/30 17:42:33;;;;;;;9.30;7.53;;;12.30;99.90;;;;;;25588962;23;20005;-60
2023/09/30 17:52:35;;;;;;;8.98;6.57;;;12.10;99.90;;;;;;25597282;23;20040;-60
2023/09/30 18:02:37;;;;;;;4.95;2.58;;;12.10;99.90;;;;;;25597097;23;20013;-60
2023/09/30 18:12:39;;;;;;;3.33;1.95;;;12.30;98.10;;;;;;25596434;23;20531;-60
2023/09/30 18:22:40;;;;;;;4.72;2.83;;;12.40;95.60;;;;;;25596268;23;20056;-60
2023/09/30 18:32:42;;;;;;;39.85;24.60;;;12.40;95.30;;;;;;25595458;23;20032;-60
2023/09/30 18:42:44;;;;;;;1.88;1.08;;;12.40;94.30;;;;;;25595888;23;20032;-61
2023/09/30 18:52:47;;;;;;;1.63;0.60;;;12.50;94.70;;;;;;25595077;23;20028;-61
2023/09/30 19:02:49;;;;;;;2.00;0.70;;;12.50;95.80;;;;;;25565427;23;20009;-59
2023/09/30 19:12:51;;;;;;;1.95;0.57;;;12.50;95.60;;;;;;25593794;23;20507;-58
2023/09/30 19:22:54;;;;;;;1.77;0.70;;;12.50;95.80;;;;;;25593368;23;20009;-59
2023/09/30 19:32:56;;;;;;;1.55;0.80;;;12.40;96.20;;;;;;25593260;23;20013;-59
2023/09/30 19:42:58;;;;;;;3.95;1.70;;;12.50;96.20;;;;;;25592848;23;20008;-59
2023/09/30 19:53:00;;;;;;;1.20;0.77;;;12.50;97.10;;;;;;25592063;23;20009;-59
2023/09/30 20:03:02;;;;;;;3.92;1.00;;;12.40;96.80;;;;;;25592177;23;20028;-58
2023/09/30 20:13:08;;;;;;;2.00;1.20;;;12.40;97.80;;;;;;25565022;23;20052;-59
2023/09/30 20:23:10;;;;;;;3.17;1.50;;;12.30;98.30;;;;;;25632455;23;20059;-58
2023/09/30 20:33:12;;;;;;;3.13;1.50;;;12.00;98.60;;;;;;25591577;23;20052;-58
2023/09/30 20:43:15;;;;;;;3.55;2.15;;;11.90;99.00;;;;;;25590572;23;20012;-49
2023/09/30 20:53:17;;;;;;;5.25;2.45;;;11.70;99.90;;;;;;25590051;23;20012;-53
2023/09/30 21:03:19;;;;;;;6.70;3.30;;;11.70;99.90;;;;;;25589979;23;20005;-58
2023/09/30 21:13:21;;;;;;;7.72;4.45;;;11.60;99.90;;;;;;25589100;23;20005;-58
2023/09/30 21:23:22;;;;;;;8.88;5.60;;;11.60;99.90;;;;;;25589067;23;20437;-58
2023/09/30 21:33:24;;;;;;;8.43;4.97;;;11.50;99.90;;;;;;25589301;23;20060;-58
2023/09/30 21:43:26;;;;;;;7.80;4.18;;;11.40;99.90;;;;;;25589158;23;20515;-58
2023/09/30 21:53:28;;;;;;;7.50;4.40;;;11.40;99.90;;;;;;25590140;23;20013;-52
2023/09/30 22:03:30;;;;;;;8.32;5.35;;;11.30;99.90;;;;;;25588751;23;20080;-58
2023/09/30 22:13:31;;;;;;;10.05;7.03;;;11.30;99.90;;;;;;25561865;23;20009;-51
2023/09/30 22:23:33;;;;;;;11.02;7.28;;;11.30;99.90;;;;;;25588462;23;20005;-58
2023/09/30 22:33:35;;;;;;;13.38;8.07;;;11.20;99.90;;;;;;25590849;23;20016;-58
2023/09/30 22:43:38;;;;;;;12.85;9.73;;;11.00;99.90;;;;;;25595446;23;20485;-58
2023/09/30 22:53:40;;;;;;;19.30;11.98;;;11.20;99.90;;;;;;25595003;23;20009;-58
2023/09/30 23:03:42;;;;;;;17.55;11.18;;;11.40;99.90;;;;;;25595156;23;20602;-58
2023/09/30 23:13:45;;;;;;;16.13;9.68;;;11.60;99.90;;;;;;25594307;23;20013;-59
2023/09/30 23:23:48;;;;;;;16.25;9.15;;;11.50;99.90;;;;;;25593901;23;20441;-59
2023/09/30 23:33:50;;;;;;;12.77;7.72;;;11.50;99.90;;;;;;25593357;23;20278;-58
2023/09/30 23:43:53;;;;;;;10.70;6.78;;;11.30;99.90;;;;;;25592897;23;20147;-58
2023/09/30 23:53:55;;;;;;;10.68;6.47;;;11.10;99.90;;;;;;25592791;23;20005;-53
